Time;durP1;ratioP1;P1;durP2;ratioP2;P2;SDS_P1;SDS_P2;PMS_P1;PMS_P2;Temp;Humidity;BMP_temperature;BMP_pressure;BME280_temperature;BME280_humidity;BME280_pressure;Samples;Min_cycle;Max_cycle;Signal;HPM_P1;HPM_P2
2022/04/04 00:00:19;;;;;;;5.10;2.50;;;2.10;99.90;;;;;;5079416;28;20048;-74
2022/04/04 00:02:45;;;;;;;4.80;2.63;;;2.10;99.90;;;;;;5062503;28;20032;-74
2022/04/04 00:05:11;;;;;;;5.15;3.10;;;2.10;99.90;;;;;;5039893;28;20051;-76
2022/04/04 00:07:38;;;;;;;6.05;2.83;;;2.00;99.90;;;;;;5050735;28;20052;-74
2022/04/04 00:10:04;;;;;;;4.95;3.20;;;2.00;99.90;;;;;;5062727;28;20045;-74
2022/04/04 00:12:30;;;;;;;4.45;3.08;;;2.00;99.90;;;;;;5045875;28;20508;-75
2022/04/04 00:14:56;;;;;;;6.35;3.50;;;1.90;99.90;;;;;;5062772;28;20059;-75
2022/04/04 00:17:22;;;;;;;9.85;4.03;;;1.90;99.90;;;;;;5042575;28;20056;-75
2022/04/04 00:19:48;;;;;;;6.40;3.78;;;1.90;99.90;;;;;;5061426;28;20085;-75
2022/04/04 00:22:14;;;;;;;8.15;3.13;;;1.90;99.90;;;;;;5062648;28;20044;-75
2022/04/04 00:24:39;;;;;;;6.05;3.38;;;2.30;99.90;;;;;;5062859;28;20090;-75
2022/04/04 00:27:05;;;;;;;5.63;3.33;;;1.80;99.90;;;;;;5045995;28;20124;-76
2022/04/04 00:29:31;;;;;;;6.43;3.42;;;1.80;99.90;;;;;;5079111;28;20100;-74
2022/04/04 00:31:57;;;;;;;7.65;3.38;;;1.80;99.90;;;;;;5062920;28;20126;-75
2022/04/04 00:34:23;;;;;;;5.97;3.70;;;1.90;99.90;;;;;;5045617;28;20044;-76
2022/04/04 00:36:49;;;;;;;6.20;4.07;;;1.90;99.90;;;;;;5062732;28;20044;-75
2022/04/04 00:39:19;;;;;;;5.07;3.28;;;1.80;99.90;;;;;;5045920;28;20044;-77
2022/04/04 00:41:48;;;;;;;6.85;2.58;;;2.20;99.90;;;;;;5063048;28;20044;-78
2022/04/04 00:44:14;;;;;;;6.10;3.03;;;1.90;99.90;;;;;;5063854;28;20045;-78
2022/04/04 00:46:42;;;;;;;7.20;3.08;;;1.90;99.90;;;;;;5057017;28;20058;-75
2022/04/04 00:49:09;;;;;;;7.57;3.05;;;1.90;99.90;;;;;;5078465;28;20072;-77
2022/04/04 00:51:35;;;;;;;5.28;2.95;;;1.90;99.90;;;;;;5059446;28;20056;-77
2022/04/04 00:54:02;;;;;;;6.93;3.03;;;2.40;99.90;;;;;;5054876;28;20045;-76
2022/04/04 00:56:31;;;;;;;5.22;3.63;;;1.90;99.90;;;;;;5078087;28;20045;-77
2022/04/04 00:58:57;;;;;;;8.20;3.58;;;1.90;99.90;;;;;;5062724;28;20067;-77
2022/04/04 01:01:22;;;;;;;4.57;2.60;;;2.00;99.90;;;;;;5075542;28;20041;-78
2022/04/04 01:03:48;;;;;;;5.47;3.30;;;1.90;99.90;;;;;;5045706;28;20041;-75
2022/04/04 01:06:14;;;;;;;4.55;3.17;;;2.10;99.90;;;;;;5053191;28;20491;-77
2022/04/04 01:08:40;;;;;;;4.88;2.78;;;2.00;99.90;;;;;;5038798;28;20056;-78
2022/04/04 01:11:06;;;;;;;5.80;3.28;;;2.20;99.90;;;;;;5045696;28;20047;-77
2022/04/04 01:13:32;;;;;;;5.95;3.53;;;3.00;99.90;;;;;;5044866;28;20088;-75
2022/04/04 01:15:58;;;;;;;5.82;3.50;;;2.30;99.90;;;;;;5060507;28;20068;-77
2022/04/04 01:18:23;;;;;;;5.68;3.42;;;2.10;99.90;;;;;;5060990;28;20055;-79
2022/04/04 01:20:50;;;;;;;6.05;3.20;;;2.30;99.90;;;;;;5051163;28;20219;-81
2022/04/04 01:23:23;;;;;;;5.25;3.60;;;2.20;99.90;;;;;;5045124;28;20504;-76
2022/04/04 01:25:48;;;;;;;5.38;3.70;;;2.20;99.90;;;;;;5059961;28;20131;-77
2022/04/04 01:28:14;;;;;;;7.13;3.97;;;2.30;99.90;;;;;;5058828;28;20077;-77
2022/04/04 01:30:40;;;;;;;6.45;3.88;;;2.30;99.90;;;;;;5056492;28;20071;-75
2022/04/04 01:33:06;;;;;;;7.10;4.75;;;2.40;99.90;;;;;;5061882;28;20079;-78
2022/04/04 01:35:32;;;;;;;7.72;4.97;;;2.40;99.90;;;;;;5077447;28;20037;-80
2022/04/04 01:37:58;;;;;;;7.32;4.30;;;2.50;99.90;;;;;;5094482;28;20508;-80
2022/04/04 01:40:24;;;;;;;8.13;4.97;;;2.40;99.90;;;;;;5061792;28;20554;-79
2022/04/04 01:42:55;;;;;;;6.75;4.63;;;2.60;99.90;;;;;;5029691;28;20044;-80
2022/04/04 01:46:23;;;;;;;9.73;6.05;;;2.50;99.90;;;;;;5062902;28;20096;-76
2022/04/04 01:48:08;;;;;;;;;;;2.50;99.90;;;;;;5080608;28;20249;-77
2022/04/04 01:50:34;;;;;;;9.02;5.10;;;2.50;99.90;;;;;;5035446;28;19926;-78
2022/04/04 01:53:25;;;;;;;8.35;5.40;;;2.60;99.90;;;;;;5061107;28;20060;-76
2022/04/04 01:55:46;;;;;;;8.77;6.93;;;2.60;99.90;;;;;;5062940;28;20107;-76
2022/04/04 01:58:11;;;;;;;10.02;5.95;;;2.60;99.90;;;;;;5061564;28;20489;-81
2022/04/04 02:00:38;;;;;;;8.80;6.93;;;2.60;99.90;;;;;;5060498;28;20044;-80
2022/04/04 02:03:04;;;;;;;13.05;7.43;;;2.60;99.90;;;;;;5077896;28;20511;-82
2022/04/04 02:05:30;;;;;;;10.48;6.97;;;2.70;99.90;;;;;;5044045;28;20037;-78
2022/04/04 02:07:56;;;;;;;9.38;6.47;;;2.70;99.90;;;;;;5040896;28;20052;-75
2022/04/04 02:10:22;;;;;;;9.05;6.30;;;2.70;99.90;;;;;;5052555;28;20051;-77
2022/04/04 02:12:49;;;;;;;8.88;6.25;;;2.80;99.90;;;;;;5043226;28;20113;-78
2022/04/04 02:15:14;;;;;;;9.70;6.68;;;2.80;99.90;;;;;;5040760;28;20048;-77
2022/04/04 02:17:40;;;;;;;8.32;6.25;;;2.80;99.90;;;;;;5060607;28;20107;-74
2022/04/04 02:20:08;;;;;;;10.15;7.75;;;2.80;99.90;;;;;;5060284;28;20052;-79
2022/04/04 02:22:34;;;;;;;10.07;6.32;;;2.80;99.90;;;;;;5077042;28;20068;-77
2022/04/04 02:25:00;;;;;;;9.98;7.18;;;2.80;99.90;;;;;;5060675;28;20040;-78
2022/04/04 02:27:27;;;;;;;9.48;6.50;;;3.00;99.90;;;;;;5077001;28;20044;-78
2022/04/04 02:29:52;;;;;;;10.48;6.55;;;2.90;99.90;;;;;;5060096;28;20045;-79
2022/04/04 02:32:19;;;;;;;10.68;6.70;;;2.80;99.90;;;;;;5034542;28;20139;-78
2022/04/04 02:34:46;;;;;;;9.32;6.97;;;2.80;99.90;;;;;;5030579;28;20041;-80
2022/04/04 02:37:14;;;;;;;11.70;7.13;;;3.00;99.90;;;;;;5069655;28;20140;-76
2022/04/04 02:39:40;;;;;;;10.88;6.28;;;2.80;99.90;;;;;;5051990;28;20100;-80
2022/04/04 02:42:06;;;;;;;7.97;6.15;;;2.80;99.90;;;;;;5076940;28;20054;-81
2022/04/04 02:44:31;;;;;;;11.15;7.15;;;2.80;99.90;;;;;;5060009;28;20460;-77
2022/04/04 02:46:57;;;;;;;17.00;6.93;;;2.80;99.90;;;;;;5039785;28;20053;-77
2022/04/04 02:49:24;;;;;;;12.35;7.65;;;2.50;99.90;;;;;;5031628;28;20037;-79
2022/04/04 02:51:50;;;;;;;11.93;6.43;;;2.90;99.90;;;;;;5072445;28;20052;-78
2022/04/04 02:54:16;;;;;;;9.77;6.95;;;2.90;99.90;;;;;;5043967;28;20072;-77
2022/04/04 02:56:42;;;;;;;10.13;6.72;;;2.90;99.90;;;;;;5059586;28;20036;-79
2022/04/04 02:59:08;;;;;;;12.75;8.15;;;2.90;99.90;;;;;;5054152;28;20056;-79
2022/04/04 03:01:35;;;;;;;12.05;7.57;;;2.90;99.90;;;;;;5070061;28;20512;-77
2022/04/04 03:04:02;;;;;;;11.82;7.45;;;2.90;99.90;;;;;;5076420;28;20104;-83
2022/04/04 03:06:28;;;;;;;12.45;7.47;;;3.10;99.90;;;;;;5037128;28;20044;-79
2022/04/04 03:08:55;;;;;;;12.18;7.88;;;3.00;99.90;;;;;;5089793;28;20087;-82
2022/04/04 03:11:21;;;;;;;13.77;7.68;;;3.00;99.90;;;;;;5060059;28;20443;-80
2022/04/04 03:13:46;;;;;;;10.70;7.25;;;3.10;99.90;;;;;;5073965;28;20106;-81
2022/04/04 03:16:13;;;;;;;14.98;8.57;;;3.10;99.90;;;;;;5069213;28;20107;-79
2022/04/04 03:18:39;;;;;;;13.02;7.72;;;3.10;99.90;;;;;;5059477;28;20104;-79
2022/04/04 03:21:07;;;;;;;14.57;7.97;;;3.20;99.90;;;;;;5058488;28;20055;-77
2022/04/04 03:23:33;;;;;;;11.65;6.93;;;3.20;99.90;;;;;;5076825;28;20040;-75
2022/04/04 03:26:00;;;;;;;10.95;6.40;;;3.20;99.90;;;;;;5075444;28;20056;-76
2022/04/04 03:28:26;;;;;;;12.90;7.72;;;3.20;99.90;;;;;;5063443;28;20100;-76
2022/04/04 03:30:52;;;;;;;12.90;7.40;;;3.30;99.90;;;;;;5080103;28;20079;-82
2022/04/04 03:33:18;;;;;;;13.07;9.30;;;3.30;99.90;;;;;;5064140;28;20052;-80
2022/04/04 03:35:45;;;;;;;13.75;9.13;;;3.30;99.90;;;;;;5062432;28;20056;-76
2022/04/04 03:38:13;;;;;;;13.82;8.23;;;3.30;99.90;;;;;;5089955;28;20047;-76
2022/04/04 03:40:39;;;;;;;13.50;8.48;;;3.20;99.90;;;;;;5057127;28;20043;-77
2022/04/04 03:43:05;;;;;;;14.60;10.07;;;3.30;99.90;;;;;;5052255;28;20464;-79
2022/04/04 03:45:31;;;;;;;16.25;9.52;;;3.40;99.90;;;;;;5071272;28;20064;-77
2022/04/04 03:47:58;;;;;;;11.35;7.25;;;3.40;99.90;;;;;;5080135;28;20048;-76
2022/04/04 03:50:26;;;;;;;15.20;8.50;;;3.40;99.90;;;;;;5096681;28;20040;-75
2022/04/04 03:52:54;;;;;;;11.80;7.40;;;3.40;99.90;;;;;;5080322;28;20091;-75
2022/04/04 03:55:21;;;;;;;10.35;7.57;;;3.40;99.90;;;;;;5046704;28;20086;-79
2022/04/04 03:57:48;;;;;;;13.40;8.68;;;3.50;99.90;;;;;;5063591;28;20056;-77
2022/04/04 04:00:15;;;;;;;13.05;8.95;;;3.50;99.90;;;;;;5062838;28;20052;-77
2022/04/04 04:02:41;;;;;;;10.63;7.75;;;3.40;99.90;;;;;;5097504;28;20048;-75
2022/04/04 04:05:07;;;;;;;15.23;8.48;;;3.50;99.90;;;;;;5062095;28;20036;-80
2022/04/04 04:07:34;;;;;;;11.68;7.78;;;3.50;99.90;;;;;;5048337;28;20040;-77
2022/04/04 04:10:00;;;;;;;13.88;7.45;;;3.50;99.90;;;;;;5063021;28;20049;-76
2022/04/04 04:12:26;;;;;;;10.88;7.55;;;3.50;99.90;;;;;;5062268;28;20048;-77
2022/04/04 04:14:53;;;;;;;12.73;9.05;;;3.70;99.90;;;;;;5080123;28;20060;-75
2022/04/04 04:17:20;;;;;;;11.02;8.35;;;3.60;99.90;;;;;;5062284;28;20135;-79
2022/04/04 04:22:31;;;;;;;12.60;9.00;;;3.70;99.90;;;;;;5058590;28;20037;-77
2022/04/04 04:24:58;;;;;;;12.18;7.88;;;3.70;99.90;;;;;;5079319;28;20044;-79
2022/04/04 04:27:24;;;;;;;10.70;7.65;;;3.70;99.90;;;;;;5051556;28;20040;-76
2022/04/04 04:29:49;;;;;;;11.85;7.95;;;3.80;99.90;;;;;;5050185;28;20058;-75
2022/04/04 04:32:15;;;;;;;10.90;7.80;;;3.80;99.90;;;;;;5063006;28;20040;-82
2022/04/04 04:34:46;;;;;;;11.77;7.50;;;3.90;99.90;;;;;;5062319;28;20070;-81
2022/04/04 04:37:13;;;;;;;13.65;8.85;;;3.90;99.90;;;;;;5063537;28;20052;-79
2022/04/04 04:39:39;;;;;;;13.60;8.43;;;3.90;99.90;;;;;;5061546;28;20056;-76
2022/04/04 04:42:05;;;;;;;13.00;7.63;;;3.90;99.90;;;;;;5051464;28;20056;-75
2022/04/04 04:44:31;;;;;;;12.30;8.50;;;3.90;99.90;;;;;;5060053;28;20495;-77
2022/04/04 04:46:57;;;;;;;13.07;8.70;;;3.70;99.90;;;;;;5027023;28;20049;-75
2022/04/04 04:49:24;;;;;;;12.60;7.63;;;3.80;99.90;;;;;;5045966;28;20155;-79
2022/04/04 04:51:50;;;;;;;12.45;8.45;;;3.90;99.90;;;;;;5046118;28;20056;-76
2022/04/04 04:54:16;;;;;;;15.23;8.80;;;3.80;99.90;;;;;;5063098;28;20040;-79
2022/04/04 04:56:43;;;;;;;14.68;8.55;;;3.70;99.90;;;;;;5051154;28;20097;-77
2022/04/04 04:59:09;;;;;;;17.33;8.85;;;3.70;99.90;;;;;;5054015;28;20054;-75
2022/04/04 05:01:36;;;;;;;14.05;9.45;;;3.70;99.90;;;;;;5045423;28;20053;-79
2022/04/04 05:04:02;;;;;;;13.75;9.30;;;3.60;99.90;;;;;;5045309;28;20575;-79
2022/04/04 05:06:28;;;;;;;17.35;9.95;;;3.50;99.90;;;;;;5074797;28;20048;-78
2022/04/04 05:08:55;;;;;;;15.57;10.35;;;3.50;99.90;;;;;;5068142;28;20075;-79
2022/04/04 05:11:21;;;;;;;15.18;9.80;;;3.50;99.90;;;;;;5061845;28;20123;-77
2022/04/04 05:13:47;;;;;;;16.13;10.20;;;3.50;99.90;;;;;;5061337;28;20560;-75
2022/04/04 05:16:14;;;;;;;15.27;10.93;;;3.60;99.90;;;;;;5031199;28;20058;-81
2022/04/04 05:18:43;;;;;;;13.98;10.20;;;3.50;99.90;;;;;;5063230;28;20048;-77
2022/04/04 05:21:09;;;;;;;15.15;9.70;;;3.50;99.90;;;;;;5076440;28;20048;-76
2022/04/04 05:23:36;;;;;;;17.52;11.18;;;3.50;99.90;;;;;;5046408;28;20049;-79
2022/04/04 05:26:03;;;;;;;17.60;11.10;;;3.50;99.90;;;;;;5019351;28;20040;-77
2022/04/04 05:28:29;;;;;;;13.80;9.80;;;3.50;99.90;;;;;;5054201;28;20044;-77
2022/04/04 05:30:55;;;;;;;19.98;11.68;;;3.60;99.90;;;;;;5077908;28;20070;-75
2022/04/04 05:33:20;;;;;;;13.88;8.95;;;3.80;99.90;;;;;;5045330;28;20481;-75
2022/04/04 05:35:46;;;;;;;12.85;9.32;;;3.60;99.90;;;;;;5044708;28;20486;-77
2022/04/04 05:38:13;;;;;;;12.50;9.65;;;3.70;99.90;;;;;;5077735;28;20036;-78
2022/04/04 05:40:39;;;;;;;16.67;10.65;;;3.60;99.90;;;;;;5078879;28;20086;-78
2022/04/04 05:43:04;;;;;;;15.90;10.80;;;3.70;99.90;;;;;;5038481;28;20049;-77
2022/04/04 05:45:30;;;;;;;15.10;9.68;;;3.70;99.90;;;;;;5058174;28;20045;-80
2022/04/04 05:47:56;;;;;;;12.13;7.32;;;3.80;99.90;;;;;;5091108;28;20044;-76
2022/04/04 05:50:22;;;;;;;13.82;8.98;;;3.80;99.90;;;;;;5039847;28;20418;-79
2022/04/04 05:52:48;;;;;;;14.23;9.93;;;3.80;99.90;;;;;;5058226;28;20047;-77
2022/04/04 05:55:14;;;;;;;15.13;10.25;;;3.80;99.90;;;;;;5024404;28;20479;-81
2022/04/04 05:57:39;;;;;;;13.75;8.55;;;3.90;99.90;;;;;;5008672;28;20067;-81
2022/04/04 06:00:13;;;;;;;13.23;8.90;;;3.90;99.90;;;;;;5054628;28;20052;-79
2022/04/04 06:02:41;;;;;;;12.70;8.43;;;4.00;99.90;;;;;;5061397;28;20063;-75
2022/04/04 06:05:08;;;;;;;11.20;7.75;;;4.00;99.90;;;;;;5060401;28;20051;-79
2022/04/04 06:07:38;;;;;;;10.75;7.68;;;4.00;99.90;;;;;;5077848;28;20044;-76
2022/04/04 06:10:06;;;;;;;12.85;8.68;;;4.00;99.90;;;;;;5060157;28;20508;-75
2022/04/04 06:12:34;;;;;;;12.10;7.57;;;4.10;99.90;;;;;;5033767;28;20358;-77
2022/04/04 06:15:01;;;;;;;10.98;7.30;;;4.10;99.90;;;;;;5044113;28;20306;-77
2022/04/04 06:17:27;;;;;;;11.00;8.00;;;4.10;99.90;;;;;;5040883;28;20073;-77
2022/04/04 06:19:53;;;;;;;10.55;8.07;;;4.10;99.90;;;;;;5060644;28;20036;-77
2022/04/04 06:22:19;;;;;;;12.98;8.43;;;4.10;99.90;;;;;;5060296;28;20059;-73
2022/04/04 06:24:44;;;;;;;10.85;7.45;;;4.50;99.90;;;;;;5078445;28;20127;-79
2022/04/04 06:27:10;;;;;;;12.27;7.35;;;4.20;99.90;;;;;;5043429;28;20048;-80
2022/04/04 06:29:36;;;;;;;9.52;7.38;;;4.20;99.90;;;;;;5043982;28;20279;-77
2022/04/04 06:32:03;;;;;;;11.35;7.78;;;4.30;99.90;;;;;;5058173;28;20045;-74
2022/04/04 06:34:29;;;;;;;10.10;6.47;;;4.30;99.90;;;;;;5043830;28;20048;-77
2022/04/04 06:36:55;;;;;;;9.13;6.95;;;4.30;99.90;;;;;;5060749;28;20044;-74
2022/04/04 06:39:21;;;;;;;9.85;6.70;;;4.40;99.90;;;;;;5043253;28;20055;-75
2022/04/04 06:41:46;;;;;;;9.13;7.28;;;4.50;99.90;;;;;;5043882;28;20043;-75
2022/04/04 06:44:13;;;;;;;10.95;8.02;;;4.60;99.90;;;;;;5045407;28;20037;-76
2022/04/04 06:46:39;;;;;;;10.57;7.47;;;4.60;99.90;;;;;;5056370;28;20495;-77
2022/04/04 06:49:06;;;;;;;9.80;6.63;;;4.70;99.90;;;;;;5059850;28;20041;-76
2022/04/04 06:51:35;;;;;;;9.88;7.05;;;4.70;99.90;;;;;;5059185;28;20102;-74
2022/04/04 06:54:04;;;;;;;9.65;7.18;;;4.70;99.90;;;;;;5060620;28;20346;-75
2022/04/04 06:56:31;;;;;;;10.55;7.85;;;4.80;99.90;;;;;;5076498;28;20039;-76
2022/04/04 06:58:58;;;;;;;9.00;7.57;;;4.80;99.90;;;;;;5060731;28;20066;-76
2022/04/04 07:01:24;;;;;;;11.07;7.28;;;4.80;99.90;;;;;;5059374;28;20040;-81
2022/04/04 07:03:49;;;;;;;10.43;6.85;;;4.80;99.90;;;;;;5059596;28;20047;-79
2022/04/04 07:06:16;;;;;;;9.13;7.65;;;4.80;99.90;;;;;;5077275;28;20055;-75
2022/04/04 07:08:43;;;;;;;11.75;8.20;;;4.80;99.90;;;;;;5059019;28;20400;-79
2022/04/04 07:11:10;;;;;;;11.45;7.15;;;4.80;99.90;;;;;;5043589;28;20075;-77
2022/04/04 07:13:40;;;;;;;9.90;8.15;;;4.80;99.90;;;;;;5075826;28;20064;-79
2022/04/04 07:16:06;;;;;;;11.00;7.78;;;4.80;99.90;;;;;;5048298;28;20841;-76
2022/04/04 07:18:32;;;;;;;12.15;7.32;;;4.80;99.90;;;;;;5052225;28;20044;-78
2022/04/04 07:20:58;;;;;;;9.60;7.38;;;4.80;99.90;;;;;;5039797;28;20048;-79
2022/04/04 07:23:24;;;;;;;13.48;8.25;;;4.70;99.90;;;;;;5039053;28;20045;-76
2022/04/04 07:25:50;;;;;;;12.05;7.75;;;4.70;99.90;;;;;;5063799;28;20531;-77
2022/04/04 07:28:16;;;;;;;11.05;7.35;;;4.70;99.90;;;;;;5046561;28;20086;-76
2022/04/04 07:30:43;;;;;;;13.07;9.45;;;4.70;99.90;;;;;;5055202;28;20072;-75
2022/04/04 07:33:09;;;;;;;12.48;9.32;;;4.60;99.90;;;;;;5063496;28;20100;-79
2022/04/04 07:35:35;;;;;;;11.93;8.75;;;5.00;99.90;;;;;;5055882;28;20043;-77
2022/04/04 07:38:01;;;;;;;13.75;8.50;;;4.60;99.90;;;;;;5063365;28;20045;-77
2022/04/04 07:40:28;;;;;;;13.20;9.55;;;4.60;99.90;;;;;;5047071;28;20040;-80
2022/04/04 07:42:54;;;;;;;11.85;8.05;;;4.50;99.90;;;;;;5067002;28;20124;-80
2022/04/04 07:45:20;;;;;;;17.30;8.35;;;4.60;99.90;;;;;;5062048;28;20501;-77
2022/04/04 07:47:47;;;;;;;16.00;9.98;;;4.60;99.90;;;;;;5056030;28;20038;-77
2022/04/04 07:50:15;;;;;;;13.63;9.50;;;4.60;99.90;;;;;;5030270;28;20116;-80
2022/04/04 07:52:41;;;;;;;12.98;9.07;;;4.60;99.90;;;;;;5068468;28;20602;-76
2022/04/04 07:55:08;;;;;;;12.30;9.40;;;4.60;99.90;;;;;;5043746;28;20100;-77
2022/04/04 07:57:34;;;;;;;14.88;9.35;;;4.60;99.90;;;;;;5049194;28;20071;-74
2022/04/04 08:00:00;;;;;;;11.32;8.50;;;4.60;99.90;;;;;;5040827;28;20088;-77
2022/04/04 08:02:26;;;;;;;11.95;9.43;;;4.60;99.90;;;;;;5042831;28;20044;-77
2022/04/04 08:04:51;;;;;;;12.60;9.30;;;4.60;99.90;;;;;;5060834;28;20057;-78
2022/04/04 08:07:19;;;;;;;12.60;9.98;;;4.60;99.90;;;;;;5055721;28;20080;-77
2022/04/04 08:09:46;;;;;;;12.88;8.73;;;4.60;99.90;;;;;;5052767;28;20623;-76
2022/04/04 08:12:12;;;;;;;13.90;9.65;;;4.70;99.90;;;;;;5053015;28;20064;-78
2022/04/04 08:14:39;;;;;;;13.77;9.55;;;4.60;99.90;;;;;;5060830;28;20044;-75
2022/04/04 08:17:05;;;;;;;15.10;9.85;;;4.60;99.90;;;;;;5060211;28;20390;-78
2022/04/04 08:19:32;;;;;;;15.45;10.63;;;4.60;99.90;;;;;;5057375;28;20071;-78
2022/04/04 08:21:58;;;;;;;17.10;12.00;;;4.60;99.90;;;;;;5053605;28;20520;-78
2022/04/04 08:24:24;;;;;;;13.15;9.80;;;4.60;99.90;;;;;;5070469;28;20547;-77
2022/04/04 08:26:50;;;;;;;14.18;10.20;;;4.50;99.90;;;;;;5053210;28;20480;-75
2022/04/04 08:29:16;;;;;;;12.32;9.80;;;4.50;99.90;;;;;;5060321;28;20052;-78
2022/04/04 08:31:41;;;;;;;15.85;10.80;;;4.40;99.90;;;;;;5046011;28;20041;-78
2022/04/04 08:34:08;;;;;;;14.30;10.45;;;4.50;99.90;;;;;;5058754;28;20049;-73
2022/04/04 08:36:34;;;;;;;16.30;12.07;;;4.40;99.90;;;;;;5055147;28;20071;-75
2022/04/04 08:39:00;;;;;;;19.90;12.43;;;4.30;99.90;;;;;;5054679;28;20121;-76
2022/04/04 08:41:31;;;;;;;18.25;12.40;;;4.30;99.90;;;;;;5054332;28;20041;-78
2022/04/04 08:44:00;;;;;;;16.95;12.32;;;4.30;99.90;;;;;;5066372;28;20127;-77
2022/04/04 08:46:26;;;;;;;17.80;13.07;;;4.30;99.90;;;;;;5023687;28;20053;-76
2022/04/04 08:48:55;;;;;;;16.80;13.20;;;4.30;99.90;;;;;;5041277;28;20049;-77
2022/04/04 08:51:21;;;;;;;16.70;10.57;;;4.30;99.90;;;;;;5032204;28;20041;-73
2022/04/04 08:53:48;;;;;;;16.92;13.43;;;4.30;99.90;;;;;;5043317;28;20037;-79
2022/04/04 08:56:13;;;;;;;18.80;12.40;;;4.30;99.90;;;;;;5044412;28;20119;-76
2022/04/04 08:58:40;;;;;;;19.88;12.80;;;4.40;99.90;;;;;;5026376;28;20430;-78
2022/04/04 09:01:05;;;;;;;19.48;14.00;;;4.40;99.90;;;;;;5057372;28;20267;-77
2022/04/04 09:03:31;;;;;;;18.38;12.82;;;4.40;99.90;;;;;;5047251;28;20050;-77
2022/04/04 09:06:05;;;;;;;19.02;12.98;;;4.40;99.90;;;;;;5065331;28;20076;-79
2022/04/04 09:08:51;;;;;;;16.30;11.93;;;4.50;99.90;;;;;;5029575;28;20070;-77
2022/04/04 09:11:17;;;;;;;12.65;9.57;;;4.50;99.90;;;;;;5058432;28;20080;-75
2022/04/04 09:13:43;;;;;;;14.77;10.32;;;4.60;99.90;;;;;;5021574;28;20053;-78
2022/04/04 09:16:10;;;;;;;13.23;10.55;;;4.70;99.90;;;;;;5043879;28;20053;-77
2022/04/04 09:18:42;;;;;;;13.80;10.73;;;4.80;99.90;;;;;;5040106;28;20069;-78
2022/04/04 09:21:10;;;;;;;16.52;10.43;;;4.80;99.90;;;;;;5061643;28;20045;-78
2022/04/04 09:23:54;;;;;;;12.48;9.05;;;4.90;99.90;;;;;;5045074;28;20101;-74
2022/04/04 09:26:34;;;;;;;13.73;9.18;;;4.90;99.90;;;;;;5071829;28;20091;-75
2022/04/04 09:29:29;;;;;;;9.77;7.70;;;4.90;99.90;;;;;;5041112;28;20052;-77
2022/04/04 09:32:05;;;;;;;11.25;8.45;;;4.90;99.90;;;;;;5036339;28;20085;-76
2022/04/04 09:34:50;;;;;;;9.40;7.93;;;4.80;99.90;;;;;;5050931;28;20094;-75
2022/04/04 09:37:17;;;;;;;7.63;6.30;;;4.80;99.90;;;;;;5049479;28;20056;-77
2022/04/04 09:39:42;;;;;;;8.35;6.43;;;4.80;99.90;;;;;;5052290;28;20047;-77
2022/04/04 09:42:19;;;;;;;9.13;7.43;;;4.70;99.90;;;;;;5061347;28;20104;-76
2022/04/04 09:44:58;;;;;;;9.60;6.80;;;4.80;99.90;;;;;;5065111;28;20487;-73
2022/04/04 09:47:52;;;;;;;9.02;6.30;;;4.80;99.90;;;;;;5074248;28;20159;-75
2022/04/04 09:50:38;;;;;;;7.57;6.35;;;4.80;99.90;;;;;;5065803;28;20057;-79
2022/04/04 09:53:24;;;;;;;7.18;5.20;;;4.80;99.90;;;;;;5074134;28;20052;-78
2022/04/04 09:55:55;;;;;;;6.93;4.72;;;4.80;99.90;;;;;;5072652;28;20068;-78
2022/04/04 09:58:31;;;;;;;5.18;4.15;;;4.80;99.90;;;;;;5041395;28;20094;-76
2022/04/04 10:00:58;;;;;;;;;;;4.80;99.90;;;;;;5073606;28;20041;-79
2022/04/04 10:03:25;;;;;;;5.50;4.05;;;4.80;99.90;;;;;;5074536;28;20222;-77
2022/04/04 10:06:08;;;;;;;5.93;4.18;;;4.80;99.90;;;;;;5076087;28;20048;-77
2022/04/04 10:08:36;;;;;;;6.70;3.85;;;4.80;99.90;;;;;;5047617;28;20047;-75
2022/04/04 10:11:04;;;;;;;6.28;3.97;;;4.80;99.90;;;;;;5064915;28;20055;-75
2022/04/04 10:13:30;;;;;;;8.18;5.22;;;4.90;99.90;;;;;;5072991;28;20056;-79
2022/04/04 10:15:56;;;;;;;7.13;4.78;;;4.90;99.90;;;;;;5060985;28;20064;-75
2022/04/04 10:18:22;;;;;;;5.53;4.45;;;4.90;99.90;;;;;;5057405;28;20476;-76
2022/04/04 10:20:53;;;;;;;4.72;3.58;;;4.90;99.90;;;;;;5056169;28;20041;-79
2022/04/04 10:23:21;;;;;;;4.55;3.78;;;5.00;99.90;;;;;;5070981;28;20060;-78
2022/04/04 10:25:50;;;;;;;5.80;3.85;;;5.00;99.90;;;;;;5033689;28;20432;-76
2022/04/04 10:28:33;;;;;;;5.45;4.32;;;5.00;99.90;;;;;;5073776;28;20091;-78
2022/04/04 10:31:00;;;;;;;6.78;5.35;;;5.00;99.90;;;;;;5085605;28;20058;-75
2022/04/04 10:33:27;;;;;;;7.40;4.70;;;5.00;99.90;;;;;;5063559;28;20555;-79
2022/04/04 10:36:23;;;;;;;5.90;4.40;;;5.00;99.90;;;;;;5023474;28;20746;-76
2022/04/04 10:38:54;;;;;;;5.22;4.43;;;5.00;99.90;;;;;;5041311;28;20127;-75
2022/04/04 10:41:28;;;;;;;7.78;5.80;;;5.00;99.90;;;;;;5057829;28;20040;-77
2022/04/04 10:43:55;;;;;;;5.68;3.72;;;5.00;99.90;;;;;;5071574;28;20044;-75
2022/04/04 10:46:23;;;;;;;6.22;4.50;;;5.10;99.90;;;;;;5060477;28;20389;-76
2022/04/04 10:48:49;;;;;;;5.45;4.75;;;5.10;99.90;;;;;;5076098;28;20048;-75
2022/04/04 10:51:25;;;;;;;6.93;5.88;;;5.20;99.90;;;;;;5067214;28;20039;-75
2022/04/04 10:53:53;;;;;;;7.50;5.20;;;5.20;99.90;;;;;;5060354;28;20062;-76
2022/04/04 10:56:30;;;;;;;5.57;4.88;;;5.20;99.90;;;;;;5053940;28;20037;-80
2022/04/04 10:59:14;;;;;;;6.60;4.70;;;5.20;99.90;;;;;;5075361;28;20044;-78
2022/04/04 11:01:45;;;;;;;5.47;3.78;;;5.30;99.90;;;;;;5086246;28;20357;-80
2022/04/04 11:04:24;;;;;;;6.95;5.03;;;5.30;99.90;;;;;;5054020;28;20053;-77
2022/04/04 11:09:55;;;;;;;7.53;6.25;;;5.30;99.90;;;;;;5043283;28;20061;-77
2022/04/04 11:12:24;;;;;;;5.72;4.35;;;5.40;99.90;;;;;;5066604;28;20041;-79
2022/04/04 11:14:55;;;;;;;7.43;5.63;;;5.40;99.90;;;;;;5039955;28;20053;-79
2022/04/04 11:17:30;;;;;;;6.55;4.50;;;5.40;99.90;;;;;;5072186;28;20109;-75
2022/04/04 11:20:10;;;;;;;6.15;4.97;;;5.40;99.90;;;;;;5069625;28;20046;-78
2022/04/04 11:22:42;;;;;;;6.00;4.90;;;5.50;99.90;;;;;;5073333;28;20037;-75
2022/04/04 11:25:15;;;;;;;5.75;4.82;;;5.50;99.90;;;;;;5059616;28;20497;-78
2022/04/04 11:27:41;;;;;;;6.32;4.45;;;5.60;99.90;;;;;;5056207;28;20128;-77
2022/04/04 11:30:13;;;;;;;7.13;5.13;;;5.60;99.90;;;;;;5048172;28;20077;-78
2022/04/04 11:32:40;;;;;;;6.45;4.80;;;5.60;99.90;;;;;;5046698;28;20151;-77
2022/04/04 11:35:11;;;;;;;6.93;5.00;;;5.60;99.90;;;;;;5042452;28;20052;-77
2022/04/04 11:37:42;;;;;;;6.70;5.13;;;5.60;99.90;;;;;;5052909;28;20428;-74
2022/04/04 11:40:13;;;;;;;6.68;5.35;;;5.70;99.90;;;;;;5038679;28;20115;-76
2022/04/04 11:42:44;;;;;;;6.13;4.60;;;5.70;99.90;;;;;;5020664;28;20068;-75
2022/04/04 11:45:16;;;;;;;7.53;5.07;;;5.70;99.90;;;;;;5038600;28;20135;-76
2022/04/04 11:47:52;;;;;;;6.55;4.90;;;5.70;99.90;;;;;;5072446;28;20065;-76
2022/04/04 11:50:19;;;;;;;5.95;4.53;;;5.70;99.90;;;;;;5076474;28;20086;-75
2022/04/04 11:52:51;;;;;;;5.75;4.70;;;5.70;99.90;;;;;;5079442;28;20040;-75
2022/04/04 11:55:18;;;;;;;5.72;4.50;;;5.80;99.90;;;;;;5067945;28;20044;-78
2022/04/04 11:57:49;;;;;;;5.38;3.58;;;5.90;99.90;;;;;;5045849;28;20044;-73
2022/04/04 12:00:37;;;;;;;4.55;3.60;;;5.90;99.90;;;;;;5063127;28;20079;-75
2022/04/04 12:03:10;;;;;;;5.18;4.20;;;5.90;99.90;;;;;;5067573;28;20064;-77
2022/04/04 12:05:47;;;;;;;6.15;3.53;;;5.90;99.90;;;;;;5076609;28;20678;-76
2022/04/04 12:08:15;;;;;;;5.43;3.80;;;6.00;99.90;;;;;;5075648;28;20056;-76
2022/04/04 12:10:42;;;;;;;4.50;2.88;;;6.00;99.90;;;;;;5059988;28;20068;-79
2022/04/04 12:13:13;;;;;;;4.85;3.60;;;6.00;99.90;;;;;;5063238;28;20076;-76
2022/04/04 12:15:45;;;;;;;4.45;3.28;;;6.00;99.90;;;;;;5064772;28;20104;-77
2022/04/04 12:18:18;;;;;;;5.40;2.92;;;6.10;99.90;;;;;;5033061;28;20045;-73
2022/04/04 12:20:45;;;;;;;4.40;2.70;;;6.10;99.90;;;;;;5042831;28;20056;-75
2022/04/04 12:26:06;;;;;;;4.07;3.03;;;6.20;99.90;;;;;;5077304;28;20044;-78
2022/04/04 12:28:34;;;;;;;4.15;2.50;;;6.20;99.90;;;;;;5076981;28;20060;-80
2022/04/04 12:31:25;;;;;;;3.30;2.67;;;6.20;99.90;;;;;;5047605;28;20091;-76
2022/04/04 12:34:06;;;;;;;6.70;2.70;;;6.20;99.90;;;;;;5058188;28;20056;-77
2022/04/04 12:36:38;;;;;;;4.40;2.38;;;6.20;99.90;;;;;;5071183;28;20499;-79
2022/04/04 12:39:08;;;;;;;4.15;2.92;;;6.30;99.90;;;;;;5045413;28;20091;-79
2022/04/04 12:41:45;;;;;;;4.40;2.75;;;6.30;99.90;;;;;;5056089;28;20038;-76
2022/04/04 12:44:12;;;;;;;3.72;2.38;;;6.40;99.90;;;;;;5052392;28;20052;-78
2022/04/04 12:46:38;;;;;;;2.45;1.88;;;6.40;99.90;;;;;;5078830;28;20044;-77
2022/04/04 12:49:08;;;;;;;4.85;2.60;;;6.80;99.90;;;;;;5057205;28;20696;-78
2022/04/04 12:51:34;;;;;;;3.35;2.10;;;6.60;99.90;;;;;;5049185;28;20527;-77
2022/04/04 12:54:00;;;;;;;3.28;2.28;;;6.40;99.90;;;;;;5072611;28;20052;-76
2022/04/04 12:56:32;;;;;;;3.95;2.15;;;6.40;99.90;;;;;;5068805;28;20037;-75
2022/04/04 12:59:16;;;;;;;3.42;2.08;;;6.50;99.90;;;;;;5082030;28;20159;-75
2022/04/04 13:01:42;;;;;;;2.50;1.88;;;6.50;99.90;;;;;;5068822;28;20525;-76
2022/04/04 13:04:20;;;;;;;3.45;2.30;;;6.50;99.90;;;;;;5046503;28;20055;-77